Latest Weather Observations for Tuggeranong

IDN60801

Issued at 11:02 pm EDT Sunday 22 January 2017 (issued every 30 minutes, with the page automatically refreshed every 10 minutes)

About weather observations | Map of weather stations | Latest weather observations for NSW | Other Formats
Station Details ID: 070339 Name: TUGGERANONG (ISABELLA PLAINS) AWS Lat: -35.42 Lon: 149.09 Height: 586.7 m
Data from the previous 72 hours. | See also: Recent months at Tuggeranong
Date/Time
EDT
Temp
°C
App
Temp
°C
Dew
Point
°C
Rel
Hum
%
Delta-T
°C
Wind Press
QNH
hPa
Press
MSL
hPa
Rain since
9am
mm
Dir  Spd
km/h
Gust
km/h
Spd
kts
Gust
kts
22/11:00pm 21.5 21.8 14.4 64 4.3 E 6 11 3 6 1015.9 1012.9 0.0
22/10:30pm 22.0 21.3 14.4 62 4.6 E 11 15 6 8 1015.5 1012.6 0.0
22/10:00pm 22.8 21.7 14.4 59 5.1 E 13 22 7 12 1015.2 1012.3 0.0
22/09:30pm 23.7 21.9 14.4 56 5.6 ENE 17 24 9 13 1014.9 1012.0 0.0
22/09:00pm 24.4 22.2 14.5 54 6.0 ENE 19 26 10 14 1014.6 1011.7 0.0
22/08:30pm 25.7 23.1 13.9 48 7.2 ENE 20 33 11 18 1014.2 1011.2 0.0
22/08:00pm 28.8 26.8 8.5 28 11.4 NW 9 13 5 7 1013.6 1010.7 0.0
22/07:30pm 29.9 27.0 8.3 26 12.2 WNW 13 20 7 11 1013.3 1010.4 0.0
22/07:00pm 30.6 27.9 8.9 26 12.4 NNW 13 20 7 11 1013.0 1010.1 0.0
22/06:30pm 30.9 27.9 9.2 26 12.5 NW 15 22 8 12 1012.9 1009.9 0.0
22/06:00pm 30.8 27.5 9.6 27 12.3 N 17 26 9 14 1012.7 1009.7 0.0
22/05:30pm 31.2 28.3 11.1 29 11.9 NNE 17 24 9 13 1012.9 1009.9 0.0
22/05:00pm 31.2 28.0 11.1 29 11.9 N 19 28 10 15 1013.1 1010.2 0.0
22/04:30pm 31.2 29.7 10.5 28 12.2 NNE 9 17 5 9 1013.4 1010.5 0.0
22/04:00pm 30.9 29.1 10.8 29 11.9 NW 11 26 6 14 1013.5 1010.6 0.0
22/03:30pm 31.0 29.7 11.4 30 11.7 N 9 20 5 11 1013.9 1010.9 0.0
22/03:00pm 30.4 28.8 11.4 31 11.3 NNE 11 19 6 10 1014.2 1011.2 0.0
22/02:30pm 29.8 28.1 11.3 32 10.9 NNE 11 19 6 10 1014.6 1011.7 0.0
22/02:00pm 28.6 26.1 11.2 34 10.2 NNE 15 24 8 13 1015.0 1012.1 0.0
22/01:30pm 27.5 26.3 11.5 37 9.4 NW 9 26 5 14 1015.5 1012.6 0.0
22/01:00pm 26.5 24.7 11.0 38 9.0 WNW 11 19 6 10 1015.9 1012.9 0.0
22/12:30pm 26.3 25.0 11.2 38 8.8 NNW 9 17 5 9 1016.3 1013.4 0.0
22/12:00pm 25.0 24.2 11.6 43 7.8 SW 7 17 4 9 1016.7 1013.8 0.0
22/11:30am 23.1 22.0 11.8 49 6.5 NW 9 17 5 9 1017.2 1014.3 0.0
22/11:00am 21.8 21.0 11.8 53 5.7 E 7 13 4 7 1017.6 1014.7 0.0
22/10:30am 20.0 19.2 11.0 56 5.1 NNW 6 9 3 5 1017.9 1015.0 0.0
22/10:00am 19.0 17.7 11.3 61 4.3 SW 9 15 5 8 1018.2 1015.3 0.0
22/09:30am 18.1 17.2 10.7 62 4.1 SE 6 13 3 7 1018.6 1015.7 0.0
22/09:00am 17.3 16.5 10.9 66 3.5 WSW 6 9 3 5 1018.8 1015.9 0.0
22/08:30am 16.6 15.8 10.9 69 3.1 S 6 7 3 4 1019.0 1016.2 0.0
22/08:00am 16.1 16.0 10.8 71 2.9 W 2 7 1 4 1018.9 1016.0 0.0
22/07:30am 15.6 15.4 10.6 72 2.7 ESE 2 9 1 5 1018.7 1015.8 0.0
22/07:00am 15.5 14.0 10.5 72 2.7 ENE 9 13 5 7 1018.7 1015.8 0.0
22/06:30am 15.6 14.7 10.8 73 2.6 ENE 6 9 3 5 1018.5 1015.6 0.0
22/06:00am 15.6 14.2 10.8 73 2.6 NNE 9 11 5 6 1018.3 1015.4 0.0
22/05:30am 15.5 13.8 11.3 76 2.3 NNE 11 17 6 9 1018.2 1015.3 0.0
22/05:00am 15.7 14.1 11.7 77 2.2 NE 11 13 6 7 1017.8 1014.9 0.0
22/04:30am 15.9 14.7 11.7 76 2.3 NNE 9 15 5 8 1017.6 1014.7 0.0
22/04:00am 16.2 15.1 11.8 75 2.5 NE 9 13 5 7 1017.3 1014.4 0.0
22/03:30am 16.3 15.1 11.7 74 2.6 ENE 9 11 5 6 1017.3 1014.4 0.0
22/03:00am 16.3 15.4 11.5 73 2.7 ENE 7 13 4 7 1017.6 1014.7 0.0
22/02:30am 16.3 15.4 11.5 73 2.7 ENE 7 13 4 7 1017.9 1015.0 0.0
22/02:00am 16.3 15.6 11.5 73 2.7 NNE 6 11 3 6 1018.0 1015.1 0.0
22/01:30am 16.3 15.1 11.5 73 2.7 ENE 9 13 5 7 1018.0 1015.1 0.0
22/01:00am 16.3 14.7 11.5 73 2.7 ENE 11 17 6 9 1018.0 1015.1 0.0
22/12:30am 16.3 14.7 11.7 74 2.6 ENE 11 20 6 11 1018.0 1015.1 0.0
22/12:00am 16.0 14.9 11.8 76 2.3 ENE 9 15 5 8 1018.0 1015.1 0.0
 
Date/Time
EDT
Temp
°C
App
Temp
°C
Dew
Point
°C
Rel
Hum
%
Delta-T
°C
Wind Press
QNH
hPa
Press
MSL
hPa
Rain since
9am
mm
Dir  Spd
km/h
Gust
km/h
Spd
kts
Gust
kts
21/11:30pm 16.0 14.8 11.6 75 2.5 ENE 9 15 5 8 1017.9 1015.0 0.0
21/11:00pm 16.2 14.2 11.6 74 2.6 E 13 20 7 11 1017.6 1014.7 0.0
21/10:30pm 16.5 14.1 11.4 72 2.8 ENE 15 24 8 13 1017.5 1014.5 0.0
21/10:00pm 17.0 14.2 11.3 69 3.2 ENE 17 28 9 15 1017.2 1014.3 0.0
21/09:30pm 17.6 14.4 11.2 66 3.6 ENE 19 32 10 17 1016.7 1013.8 0.0
21/09:00pm 18.5 15.1 11.1 62 4.1 ENE 20 32 11 17 1016.0 1013.0 0.0
21/08:30pm 19.8 16.0 11.0 57 4.9 E 22 35 12 19 1015.0 1012.1 0.0
21/08:00pm 21.7 17.6 11.4 52 5.9 ENE 24 39 13 21 1014.2 1011.2 0.0
21/07:30pm 23.2 18.6 10.9 46 7.0 E 26 39 14 21 1013.1 1010.2 0.0
21/07:00pm 25.9 22.0 10.9 39 8.7 E 22 33 12 18 1012.2 1009.2 0.0
21/06:30pm 28.3 25.9 10.0 32 10.5 NNE 13 26 7 14 1011.5 1008.6 0.0
21/06:00pm 29.4 27.1 7.3 25 12.2 N 9 15 5 8 1011.0 1008.0 0.0
21/05:30pm 30.3 28.7 8.7 26 12.3 NNW 7 13 4 7 1010.9 1007.9 0.0
21/05:00pm 30.2 27.8 8.6 26 12.3 WNW 11 19 6 10 1011.0 1008.0 0.0
21/04:30pm 30.4 28.7 9.8 28 11.9 NW 9 15 5 8 1011.1 1008.1 0.0
21/04:00pm 30.0 28.2 9.5 28 11.8 WSW 9 13 5 7 1011.1 1008.1 0.0
21/03:30pm 29.3 27.9 9.4 29 11.4 NE 7 13 4 7 1011.3 1008.3 0.0
21/03:00pm 29.1 26.9 9.3 29 11.3 WSW 11 20 6 11 1011.4 1008.4 0.0
21/02:30pm 27.2 23.9 6.6 27 11.1 NE 13 20 7 11 1011.4 1008.4 0.0
21/02:00pm 27.3 25.2 6.7 27 11.2 NE 7 13 4 7 1011.5 1008.6 0.0
21/01:30pm 27.1 25.2 7.5 29 10.8 ESE 7 11 4 6 1011.6 1008.7 0.0
21/01:00pm 26.4 24.3 8.4 32 10.0 S 9 13 5 7 1011.8 1008.9 0.0
21/12:30pm 24.6 22.7 9.0 37 8.7 SW 9 15 5 8 1012.2 1009.2 0.0
21/12:00pm 24.0 22.8 10.3 42 7.8 S 7 11 4 6 1012.2 1009.2 0.0
21/11:30am 22.6 20.8 9.4 43 7.3 W 9 13 5 7 1012.4 1009.4 0.0
21/11:00am 21.7 20.1 8.9 44 7.0 WSW 7 13 4 7 1012.4 1009.4 0.0
21/10:30am 20.0 18.0 7.1 43 6.8 SSW 7 13 4 7 1012.6 1009.6 0.0
21/10:00am 18.9 16.4 6.4 44 6.4 S 9 13 5 7 1012.6 1009.6 0.0
21/09:30am 17.9 16.1 7.3 50 5.5 WNW 6 11 3 6 1012.5 1009.5 0.0
21/09:00am 16.9 15.1 7.0 52 5.1 ESE 6 7 3 4 1012.5 1009.5 2.4
21/08:30am 15.1 14.2 6.1 55 4.5 CALM 0 6 0 3 1012.2 1009.2 2.4
21/08:00am 13.9 13.1 6.7 62 3.6 CALM 0 0 0 0 1011.9 1009.0 2.4
21/07:30am 13.0 12.4 7.2 68 2.9 CALM 0 0 0 0 1011.7 1008.8 2.4
21/07:00am 10.9 10.3 7.2 78 1.8 CALM 0 0 0 0 1011.0 1008.0 2.4
21/06:30am 9.3 8.5 6.4 82 1.4 CALM 0 0 0 0 1010.4 1007.4 2.4
21/06:00am 9.6 7.6 6.3 80 1.6 NW 6 7 3 4 1009.9 1007.0 2.4
21/05:30am 9.8 7.8 6.3 79 1.7 NNW 6 7 3 4 1009.3 1006.3 2.4
21/05:00am 10.3 8.3 6.1 75 2.0 NW 6 7 3 4 1008.9 1005.9 2.4
21/04:30am 11.2 9.9 6.1 71 2.5 NNW 2 7 1 4 1008.4 1005.3 2.4
21/04:00am 11.7 10.0 6.0 68 2.8 WSW 4 9 2 5 1008.1 1005.1 2.4
21/03:30am 12.6 11.6 5.8 63 3.3 CALM 0 7 0 4 1007.8 1004.8 2.4
21/03:00am 13.7 11.1 6.1 60 3.8 SSE 9 17 5 9 1007.3 1004.3 2.4
21/02:30am 13.8 11.8 6.2 60 3.8 ENE 6 9 3 5 1007.0 1004.0 2.4
21/02:00am 14.0 11.5 6.4 60 3.8 SSE 9 15 5 8 1007.3 1004.3 2.4
21/01:30am 15.0 11.3 6.3 56 4.3 SSE 15 20 8 11 1007.0 1004.0 2.4
21/01:00am 15.5 11.8 6.5 55 4.5 SE 15 28 8 15 1006.0 1003.0 2.4
21/12:30am 16.0 12.8 6.7 54 4.7 SSE 13 28 7 15 1005.9 1002.9 2.4
21/12:00am 16.7 12.2 7.1 53 4.9 SSE 20 39 11 21 1005.3 1002.2 2.4
 
Date/Time
EDT
Temp
°C
App
Temp
°C
Dew
Point
°C
Rel
Hum
%
Delta-T
°C
Wind Press
QNH
hPa
Press
MSL
hPa
Rain since
9am
mm
Dir  Spd
km/h
Gust
km/h
Spd
kts
Gust
kts
20/11:30pm 17.3 12.5 7.4 52 5.1 SSE 22 35 12 19 1004.8 1001.7 2.4
20/11:00pm 17.8 14.1 7.8 52 5.3 SSE 17 30 9 16 1004.3 1001.3 2.4
20/10:30pm 18.5 14.6 8.5 52 5.3 S 19 30 10 16 1003.7 1000.6 2.4
20/10:00pm 19.9 14.9 9.5 51 5.7 SSE 26 37 14 20 1002.8 999.8 2.4
20/09:30pm 22.3 20.2 12.5 53 5.7 SSE 15 22 8 12 1001.8 998.7 2.4
20/09:00pm 22.5 21.5 12.2 52 6.0 W 9 15 5 8 1000.4 997.3 2.4
20/08:30pm 23.1 20.4 11.8 49 6.5 WSW 17 26 9 14 999.7 996.6 2.4
20/08:00pm 24.2 20.4 11.2 44 7.5 WSW 22 33 12 18 998.9 995.8 2.4
20/07:30pm 25.8 22.2 10.0 37 9.0 SW 19 30 10 16 998.0 994.9 2.4
20/07:00pm 27.2 24.2 10.8 36 9.6 SW 17 28 9 15 997.1 994.0 2.4
20/06:30pm 27.6 23.7 10.8 35 9.8 WSW 22 33 12 18 996.0 992.8 2.4
20/06:00pm 28.4 24.6 11.0 34 10.3 SW 22 37 12 20 995.4 992.3 2.4
20/05:30pm 29.4 27.2 14.8 41 9.1 WSW 20 32 11 17 995.0 991.9 2.4
20/05:00pm 29.0 27.2 16.9 48 7.8 WSW 22 52 12 28 994.8 991.7 2.4
20/04:30pm 27.2 26.6 18.8 60 5.5 W 20 32 11 17 994.8 991.7 2.4
20/04:00pm 25.5 27.1 21.4 78 2.8 W 15 22 8 12 994.8 991.7 2.4
20/03:30pm 26.2 25.2 20.5 71 3.8 WNW 26 43 14 23 993.8 990.7 2.4
20/03:00pm 24.7 25.3 21.4 82 2.2 NW 20 39 11 21 994.1 990.9 2.4
20/02:30pm 24.0 26.1 22.4 91 1.1 WNW 15 28 8 15 994.6 991.4 2.4
20/02:00pm 23.1 23.7 20.2 84 1.9 NW 17 24 9 13 995.0 991.9 1.6
20/01:30pm 23.6 23.3 19.5 78 2.7 NW 20 35 11 19 995.6 992.5 1.4
20/01:00pm 23.7 22.0 18.1 71 3.6 WNW 24 39 13 21 996.1 992.9 1.4
20/12:30pm 23.7 23.0 18.6 73 3.3 WNW 20 37 11 20 996.3 993.2 1.4
20/12:00pm 24.4 22.9 18.6 70 3.8 NW 24 37 13 20 996.6 993.5 1.4
20/11:30am 23.4 22.4 18.9 76 2.9 NW 22 37 12 20 997.3 994.2 1.4
20/11:00am 21.7 22.7 19.4 87 1.5 NNW 13 22 7 12 997.9 994.8 1.4
20/10:30am 18.7 19.3 18.7 100 0.0 NW 13 24 7 13 998.8 995.7 1.4
20/10:00am 17.3 17.7 16.3 94 0.6 N 9 15 5 8 999.9 996.8 1.2
20/09:30am 17.1 18.3 15.8 92 0.8 NE 4 9 2 5 1000.4 997.3 0.6
20/09:00am 17.1 18.4 15.1 88 1.2 NE 2 7 1 4 1000.9 997.9 0.6
20/08:30am 16.9 17.5 14.2 84 1.6 NW 4 7 2 4 1001.4 998.3 0.4
20/08:00am 17.4 18.1 13.5 78 2.3 W 2 7 1 4 1001.2 998.1 0.0
20/07:30am 17.2 17.2 13.7 80 2.0 N 6 9 3 5 1001.9 998.8 0.0
20/07:00am 16.7 17.7 13.2 80 2.0 CALM 0 2 0 1 1002.3 999.3 0.0
20/06:30am 16.6 16.4 13.1 80 2.0 SSW 6 9 3 5 1003.0 999.9 0.0
20/06:00am 16.7 17.7 13.2 80 2.0 CALM 0 0 0 0 1003.0 999.9 0.0
20/05:30am 16.7 17.7 13.2 80 2.0 CALM 0 0 0 0 1003.1 1000.0 0.0
20/05:00am 16.7 17.7 13.2 80 2.0 CALM 0 4 0 2 1003.6 1000.5 0.0
20/04:30am 16.7 17.6 13.0 79 2.1 CALM 0 0 0 0 1004.2 1001.2 0.0
20/04:00am 16.7 17.6 13.0 79 2.1 CALM 0 0 0 0 1004.8 1001.7 0.0
20/03:30am 16.7 17.6 13.0 79 2.1 CALM 0 6 0 3 1006.0 1003.0 0.0
20/03:00am 16.7 16.9 13.0 79 2.1 ENE 4 9 2 5 1006.6 1003.5 0.0
20/02:30am 16.6 16.4 12.9 79 2.1 ENE 6 9 3 5 1007.5 1004.5 0.0
20/02:00am 16.7 16.2 12.8 78 2.2 NNE 7 11 4 6 1008.0 1005.0 0.0
20/01:30am 16.7 15.8 12.7 77 2.3 NE 9 11 5 6 1008.1 1005.1 0.0
20/01:00am 16.8 15.9 12.7 77 2.3 ENE 9 15 5 8 1008.6 1005.6 0.0
20/12:30am 16.6 17.1 12.8 78 2.2 ENE 2 7 1 4 1009.4 1006.4 0.0
20/12:00am 16.5 16.6 12.7 78 2.2 ENE 4 7 2 4 1009.7 1006.7 0.0
 
Date/Time
EDT
Temp
°C
App
Temp
°C
Dew
Point
°C
Rel
Hum
%
Delta-T
°C
Wind Press
QNH
hPa
Press
MSL
hPa
Rain since
9am
mm
Dir  Spd
km/h
Gust
km/h
Spd
kts
Gust
kts
19/11:30pm 16.5 16.6 12.7 78 2.2 ESE 4 6 2 3 1010.6 1007.6 0.0

Other Formats:

Comma delimited format used in spreadsheet applications
http://www.bom.gov.au/fwo/IDN60801/IDN60801.94925.axf

JavaScript Object Notation format (JSON) in row-major order
http://www.bom.gov.au/fwo/IDN60801/IDN60801.94925.json